createdAt,value
2023-02-25T00:01:15.440Z,43.59
2023-02-25T00:03:43.881Z,43.33
2023-02-25T00:06:14.629Z,43.94
2023-02-25T00:08:46.799Z,43.95
2023-02-25T00:11:16.908Z,44.38
2023-02-25T00:13:45.233Z,44.78
2023-02-25T00:16:15.054Z,43.48
2023-02-25T00:18:46.562Z,43.73
2023-02-25T00:21:16.228Z,44.53
2023-02-25T00:23:46.986Z,43.54
2023-02-25T00:26:15.014Z,44.17
2023-02-25T00:28:43.182Z,44.12
2023-02-25T00:31:15.335Z,42.97
2023-02-25T00:33:43.782Z,42.61
2023-02-25T00:36:14.562Z,43.77
2023-02-25T00:38:42.363Z,43.55
2023-02-25T00:41:12.742Z,44.13
2023-02-25T00:43:42.388Z,43.13
2023-02-25T00:46:12.051Z,43.75
2023-02-25T00:48:40.528Z,42.84
2023-02-25T00:51:09.523Z,44.46
2023-02-25T00:53:38.577Z,43.42
2023-02-25T00:56:07.820Z,42.76
2023-02-25T00:58:38.051Z,44.17
2023-02-25T01:01:08.296Z,43.35
2023-02-25T01:03:36.064Z,42.68
2023-02-25T01:06:04.137Z,42.15
2023-02-25T01:08:32.001Z,42.65
2023-02-25T01:10:59.727Z,42.05
2023-02-25T01:13:27.691Z,42.05
2023-02-25T01:15:56.932Z,42.18
2023-02-25T01:18:24.707Z,42.33
2023-02-25T01:20:53.821Z,41.91
2023-02-25T01:23:21.581Z,42.21
2023-02-25T01:25:49.347Z,41.62
2023-02-25T01:28:17.089Z,40.95
2023-02-25T01:30:45.647Z,42.46
2023-02-25T01:33:14.821Z,41.50
2023-02-25T01:35:42.585Z,42.07
2023-02-25T01:38:10.404Z,41.63
2023-02-25T01:40:38.809Z,42.81
2023-02-25T01:43:07.717Z,41.86
2023-02-25T01:45:36.337Z,43.28
2023-02-25T01:48:10.564Z,42.81
2023-02-25T01:50:46.574Z,43.79
2023-02-25T01:53:16.793Z,44.23
2023-02-25T01:55:44.978Z,44.16
2023-02-25T01:58:14.467Z,44.67
2023-02-25T02:00:42.949Z,43.48
2023-02-25T02:03:16.200Z,44.04
2023-02-25T02:05:55.987Z,43.18
2023-02-25T02:08:26.343Z,44.46
2023-02-25T02:10:55.649Z,43.13
2023-02-25T02:13:23.982Z,43.59
2023-02-25T02:16:00.855Z,44.09
2023-02-25T02:18:34.925Z,43.13
2023-02-25T02:21:21.206Z,41.46
2023-02-25T02:24:18.265Z,42.33
2023-02-25T02:26:54.549Z,41.85
2023-02-25T02:29:53.966Z,42.09
2023-02-25T02:32:33.874Z,42.56
2023-02-25T02:35:10.398Z,41.32
2023-02-25T02:37:44.850Z,43.07
2023-02-25T02:40:23.968Z,43.71
2023-02-25T02:43:05.364Z,42.90
2023-02-25T02:45:42.403Z,42.94
2023-02-25T02:48:16.694Z,42.96
2023-02-25T02:50:48.932Z,42.71
2023-02-25T02:53:22.384Z,42.10
2023-02-25T02:55:53.263Z,42.85
2023-02-25T02:58:28.888Z,42.86
2023-02-25T03:01:02.665Z,42.87
2023-02-25T03:03:37.668Z,42.61
2023-02-25T03:06:09.080Z,43.60
2023-02-25T03:08:44.788Z,41.71
2023-02-25T03:11:12.956Z,44.04
2023-02-25T03:13:41.185Z,43.77
2023-02-25T03:16:13.980Z,43.54
2023-02-25T03:18:50.254Z,43.61
2023-02-25T03:21:24.626Z,43.63
2023-02-25T03:23:52.751Z,44.21
2023-02-25T03:26:25.213Z,43.29
2023-02-25T03:28:57.943Z,43.49
2023-02-25T03:31:29.364Z,44.63
2023-02-25T03:34:03.302Z,42.68
2023-02-25T03:36:35.185Z,43.42
2023-02-25T03:39:09.883Z,43.28
2023-02-25T03:41:44.706Z,42.74
2023-02-25T03:44:18.153Z,43.39
2023-02-25T03:46:48.129Z,43.49
2023-02-25T03:49:24.566Z,44.33
2023-02-25T03:51:55.256Z,43.20
2023-02-25T03:54:23.403Z,43.91
2023-02-25T03:56:52.597Z,43.40
2023-02-25T03:59:23.685Z,44.38
2023-02-25T04:01:53.801Z,43.20
2023-02-25T04:04:23.323Z,42.16
2023-02-25T04:06:51.276Z,42.72
2023-02-25T04:09:19.512Z,43.23
2023-02-25T04:11:48.944Z,42.67
2023-02-25T04:14:18.381Z,42.03
2023-02-25T04:16:46.890Z,42.52
2023-02-25T04:19:14.673Z,41.80
2023-02-25T04:21:45.137Z,41.77
2023-02-25T04:24:16.752Z,42.21
2023-02-25T04:26:44.607Z,42.36
2023-02-25T04:29:12.488Z,43.34
2023-02-25T04:31:40.577Z,42.46
2023-02-25T04:34:08.688Z,41.49
2023-02-25T04:36:37.092Z,42.44
2023-02-25T04:39:06.933Z,42.46
2023-02-25T04:41:36.823Z,43.01
2023-02-25T04:44:05.882Z,42.27
2023-02-25T04:46:35.440Z,41.91
2023-02-25T04:49:03.975Z,42.15
2023-02-25T04:51:31.994Z,41.59
2023-02-25T04:54:00.121Z,42.35
2023-02-25T04:56:29.442Z,43.58
2023-02-25T04:58:57.802Z,42.59
2023-02-25T05:01:25.745Z,41.20
2023-02-25T05:03:56.856Z,41.87
2023-02-25T05:06:25.901Z,42.42
2023-02-25T05:08:54.166Z,43.84
2023-02-25T05:11:22.284Z,43.18
2023-02-25T05:13:51.860Z,42.20
2023-02-25T05:16:20.716Z,42.76
2023-02-25T05:18:49.080Z,42.93
2023-02-25T05:21:19.613Z,42.84
2023-02-25T05:23:49.005Z,42.66
2023-02-25T05:26:21.781Z,43.11
2023-02-25T05:28:51.594Z,43.51
2023-02-25T05:31:20.118Z,43.08
2023-02-25T05:33:48.379Z,41.42
2023-02-25T05:36:17.526Z,41.22
2023-02-25T05:38:46.086Z,41.17
2023-02-25T05:41:15.015Z,40.93
2023-02-25T05:43:45.200Z,41.72
2023-02-25T05:46:14.855Z,42.57
2023-02-25T05:48:45.898Z,42.20
2023-02-25T05:51:16.478Z,40.87
2023-02-25T05:53:45.171Z,41.79
2023-02-25T05:56:14.921Z,40.56
2023-02-25T05:58:43.399Z,42.03
2023-02-25T06:01:13.784Z,41.69
2023-02-25T06:03:44.604Z,41.75
2023-02-25T06:06:14.798Z,41.38
2023-02-25T06:08:44.246Z,41.46
2023-02-25T06:11:14.580Z,41.20
2023-02-25T06:13:42.816Z,41.81
2023-02-25T06:16:10.729Z,41.60
2023-02-25T06:18:39.737Z,42.25
2023-02-25T06:21:11.255Z,40.82
2023-02-25T06:23:40.726Z,40.62
2023-02-25T06:26:11.023Z,42.46
2023-02-25T06:28:39.495Z,41.31
2023-02-25T06:31:09.357Z,41.30
2023-02-25T06:33:37.542Z,41.11
2023-02-25T06:36:09.175Z,41.60
2023-02-25T06:38:37.454Z,40.66
2023-02-25T06:41:07.585Z,39.66
2023-02-25T06:43:35.884Z,39.75
2023-02-25T06:46:08.129Z,40.44
2023-02-25T06:48:36.108Z,40.73
2023-02-25T06:51:08.998Z,40.52
2023-02-25T06:53:38.917Z,39.79
2023-02-25T06:56:08.242Z,39.56
2023-02-25T06:58:37.078Z,40.33
2023-02-25T07:01:07.141Z,40.76
2023-02-25T07:03:35.228Z,41.13
2023-02-25T07:06:03.206Z,39.70
2023-02-25T07:08:31.110Z,40.69
2023-02-25T07:11:15.030Z,39.68
2023-02-25T07:13:44.485Z,40.28
2023-02-25T07:16:13.199Z,40.61
2023-02-25T07:18:41.738Z,40.55
2023-02-25T07:21:09.711Z,41.61
2023-02-25T07:23:37.499Z,42.13
2023-02-25T07:26:06.090Z,41.01
2023-02-25T07:28:35.677Z,41.09
2023-02-25T07:31:06.071Z,41.42
2023-02-25T07:33:34.050Z,40.74
2023-02-25T07:36:02.363Z,40.61
2023-02-25T07:38:30.161Z,39.99
2023-02-25T07:40:58.744Z,42.05
2023-02-25T07:43:26.605Z,41.24
2023-02-25T07:45:58.018Z,40.52
2023-02-25T07:48:25.935Z,41.04
2023-02-25T07:50:54.008Z,40.76
2023-02-25T07:53:22.952Z,41.21
2023-02-25T07:55:51.519Z,40.62
2023-02-25T07:58:19.361Z,40.05
2023-02-25T08:00:47.366Z,39.77
2023-02-25T08:03:16.580Z,40.59
2023-02-25T08:05:44.470Z,39.80
2023-02-25T08:08:13.205Z,39.33
2023-02-25T08:10:41.110Z,40.64
2023-02-25T08:13:09.060Z,40.84
2023-02-25T08:15:40.939Z,41.25
2023-02-25T08:18:09.001Z,40.44
2023-02-25T08:20:38.616Z,40.71
2023-02-25T08:23:06.972Z,40.16
2023-02-25T08:25:34.812Z,41.07
2023-02-25T08:28:02.742Z,40.42
2023-02-25T08:30:30.636Z,39.47
2023-02-25T08:32:58.479Z,39.13
2023-02-25T08:35:27.089Z,39.82
2023-02-25T08:37:56.243Z,39.16
2023-02-25T08:40:23.971Z,39.21
2023-02-25T08:42:51.759Z,37.71
2023-02-25T08:45:21.942Z,37.86
2023-02-25T08:47:49.991Z,38.72
2023-02-25T08:50:18.489Z,37.89
2023-02-25T08:52:46.861Z,38.19
2023-02-25T08:55:16.414Z,38.87
2023-02-25T08:57:44.815Z,38.20
2023-02-25T09:00:15.340Z,38.03
2023-02-25T09:02:44.946Z,37.42
2023-02-25T09:05:13.106Z,37.23
2023-02-25T09:07:40.998Z,37.38
2023-02-25T09:10:10.256Z,37.17
2023-02-25T09:12:40.626Z,37.27
2023-02-25T09:15:10.031Z,37.15
2023-02-25T09:17:37.936Z,38.89
2023-02-25T09:20:08.164Z,37.86
2023-02-25T09:22:36.097Z,39.16
2023-02-25T09:25:04.609Z,39.71
2023-02-25T09:27:32.560Z,39.84
2023-02-25T09:30:01.845Z,40.79
2023-02-25T09:32:29.739Z,39.64
2023-02-25T09:34:59.592Z,39.71
2023-02-25T09:37:28.525Z,38.73
2023-02-25T09:39:56.396Z,38.21
2023-02-25T09:42:27.925Z,36.73
2023-02-25T09:45:00.736Z,37.61
2023-02-25T09:47:34.964Z,36.99
2023-02-25T09:50:08.045Z,36.35
2023-02-25T09:52:40.105Z,37.88
2023-02-25T09:55:16.881Z,37.20
2023-02-25T09:57:46.814Z,35.48
2023-02-25T10:00:18.619Z,36.27
2023-02-25T10:02:53.900Z,36.28
2023-02-25T10:05:27.102Z,36.15
2023-02-25T10:08:02.711Z,36.57
2023-02-25T10:10:38.301Z,38.03
2023-02-25T10:13:18.080Z,36.18
2023-02-25T10:15:56.964Z,36.03
2023-02-25T10:18:42.545Z,40.34
2023-02-25T10:21:23.975Z,40.34
2023-02-25T10:24:03.732Z,39.30
2023-02-25T10:26:35.833Z,39.87
2023-02-25T10:29:08.639Z,39.92
2023-02-25T10:31:37.863Z,38.68
2023-02-25T10:34:21.757Z,38.73
2023-02-25T10:36:55.569Z,38.13
2023-02-25T10:39:24.031Z,39.40
2023-02-25T10:41:52.376Z,38.19
2023-02-25T10:44:20.442Z,38.25
2023-02-25T10:46:54.400Z,37.97
2023-02-25T10:49:26.389Z,37.31
2023-02-25T10:52:03.941Z,38.17
2023-02-25T10:54:33.253Z,37.97
2023-02-25T10:57:02.428Z,36.34
2023-02-25T10:59:33.461Z,36.22
2023-02-25T11:02:02.507Z,37.56
2023-02-25T11:04:35.889Z,34.54
2023-02-25T11:07:24.600Z,35.75
2023-02-25T11:10:09.319Z,34.84
2023-02-25T11:12:41.996Z,36.21
2023-02-25T11:15:42.077Z,33.90
2023-02-25T11:18:21.103Z,36.18
2023-02-25T11:20:54.170Z,35.16
2023-02-25T11:23:24.869Z,34.87
2023-02-25T11:25:53.983Z,35.00
2023-02-25T11:28:30.177Z,33.64
2023-02-25T11:31:08.379Z,33.06
2023-02-25T11:33:38.970Z,33.32
2023-02-25T11:36:09.079Z,34.66
2023-02-25T11:38:38.203Z,35.44
2023-02-25T11:41:17.835Z,35.37
2023-02-25T11:43:45.861Z,35.45
2023-02-25T11:46:23.147Z,34.20
2023-02-25T11:48:54.105Z,31.24
2023-02-25T11:51:30.492Z,31.47
2023-02-25T11:54:09.245Z,32.16
2023-02-25T11:56:39.658Z,25.95
2023-02-25T11:59:21.992Z,25.56
2023-02-25T12:02:12.423Z,26.74
2023-02-25T12:05:16.763Z,26.63
2023-02-25T12:08:14.059Z,26.39
2023-02-25T12:11:13.207Z,25.49
2023-02-25T12:14:23.105Z,24.34
2023-02-25T12:17:26.216Z,24.98
2023-02-25T12:20:33.164Z,24.20
2023-02-25T12:23:41.477Z,24.04
2023-02-25T12:26:15.567Z,23.58
2023-02-25T12:29:01.022Z,22.39
2023-02-25T12:32:06.480Z,23.46
2023-02-25T12:35:01.142Z,24.38
2023-02-25T12:38:03.064Z,25.04
2023-02-25T12:40:43.215Z,25.03
2023-02-25T12:43:28.280Z,24.37
2023-02-25T12:46:22.168Z,23.88
2023-02-25T12:49:12.253Z,22.99
2023-02-25T12:52:16.483Z,22.07
2023-02-25T12:55:04.815Z,22.07
2023-02-25T12:57:49.777Z,20.94
2023-02-25T13:00:44.134Z,20.77
2023-02-25T13:03:25.585Z,17.95
2023-02-25T13:06:29.468Z,20.51
2023-02-25T13:09:13.027Z,20.95
2023-02-25T13:12:11.012Z,20.86
2023-02-25T13:14:56.575Z,17.42
2023-02-25T13:17:38.954Z,18.44
2023-02-25T13:20:44.808Z,20.17
2023-02-25T13:23:34.982Z,19.48
2023-02-25T13:26:21.760Z,20.53
2023-02-25T13:29:04.443Z,18.57
2023-02-25T13:31:43.802Z,20.29
2023-02-25T13:34:23.217Z,21.34
2023-02-25T13:37:09.601Z,22.51
2023-02-25T13:39:53.228Z,22.31
2023-02-25T13:42:41.355Z,22.71
2023-02-25T13:45:32.842Z,21.33
2023-02-25T13:48:31.197Z,21.33
2023-02-25T13:51:21.741Z,20.39
2023-02-25T13:54:07.720Z,20.05
2023-02-25T13:56:56.431Z,21.38
2023-02-25T13:59:45.250Z,21.13
2023-02-25T14:02:36.829Z,19.88
2023-02-25T14:05:38.567Z,18.94
2023-02-25T14:08:22.065Z,20.94
2023-02-25T14:10:55.636Z,18.78
2023-02-25T14:13:41.712Z,19.68
2023-02-25T14:16:28.862Z,20.59
2023-02-25T14:19:28.064Z,20.72
2023-02-25T14:22:22.443Z,19.32
2023-02-25T14:25:00.796Z,16.68
2023-02-25T14:27:36.260Z,17.62
2023-02-25T14:30:25.403Z,19.44
2023-02-25T14:33:04.404Z,20.77
2023-02-25T14:35:47.135Z,21.22
2023-02-25T14:38:18.830Z,19.82
2023-02-25T14:40:57.019Z,16.87
2023-02-25T14:43:32.204Z,15.50
2023-02-25T14:46:05.407Z,15.47
2023-02-25T14:48:39.925Z,15.82
2023-02-25T14:51:31.921Z,15.22
2023-02-25T14:54:29.048Z,15.27
2023-02-25T14:57:16.811Z,14.36
2023-02-25T15:00:14.232Z,13.41
2023-02-25T15:03:24.510Z,11.79
2023-02-25T15:06:07.883Z,10.86
2023-02-25T15:09:09.158Z,11.38
2023-02-25T15:11:51.211Z,11.87
2023-02-25T15:15:07.023Z,16.58
2023-02-25T15:18:24.836Z,18.37
2023-02-25T15:20:53.310Z,19.19
2023-02-25T15:23:23.514Z,18.90
2023-02-25T15:25:53.989Z,18.38
2023-02-25T15:28:41.380Z,19.09
2023-02-25T15:31:29.966Z,18.49
2023-02-25T15:34:34.782Z,17.91
2023-02-25T15:37:23.631Z,18.67
2023-02-25T15:39:56.043Z,19.98
2023-02-25T15:42:52.963Z,20.71
2023-02-25T15:45:47.136Z,19.47
2023-02-25T15:48:35.631Z,19.38
2023-02-25T15:51:06.298Z,19.85
2023-02-25T15:53:48.046Z,20.23
2023-02-25T15:56:57.770Z,19.69
2023-02-25T15:59:46.676Z,19.78
2023-02-25T16:02:40.594Z,20.23
2023-02-25T16:05:20.381Z,19.85
2023-02-25T16:07:50.903Z,20.35
2023-02-25T16:10:26.556Z,20.49
2023-02-25T16:12:57.338Z,20.10
2023-02-25T16:15:33.077Z,19.60
2023-02-25T16:18:15.268Z,17.90
2023-02-25T16:20:47.423Z,18.36
2023-02-25T16:23:16.617Z,18.85
2023-02-25T16:25:53.019Z,19.44
2023-02-25T16:28:31.472Z,19.58
2023-02-25T16:31:07.508Z,20.35
2023-02-25T16:33:46.410Z,21.05
2023-02-25T16:36:21.349Z,21.46
2023-02-25T16:38:59.026Z,21.54
2023-02-25T16:41:37.608Z,21.39
2023-02-25T16:44:07.049Z,21.55
2023-02-25T16:46:41.409Z,22.51
2023-02-25T16:49:18.917Z,22.20
2023-02-25T16:51:48.275Z,21.95
2023-02-25T16:54:18.811Z,22.37
2023-02-25T16:56:48.977Z,22.36
2023-02-25T16:59:19.613Z,22.67
2023-02-25T17:01:54.743Z,22.43
2023-02-25T17:04:26.110Z,22.37
2023-02-25T17:07:17.744Z,23.50
2023-02-25T17:09:48.380Z,23.45
2023-02-25T17:12:20.609Z,23.39
2023-02-25T17:14:51.881Z,24.88
2023-02-25T17:17:26.297Z,23.60
2023-02-25T17:19:56.621Z,24.82
2023-02-25T17:22:26.439Z,25.29
2023-02-25T17:24:58.333Z,25.05
2023-02-25T17:27:28.426Z,24.73
2023-02-25T17:29:56.947Z,25.51
2023-02-25T17:32:27.225Z,24.62
2023-02-25T17:35:00.902Z,26.42
2023-02-25T17:37:30.632Z,25.43
2023-02-25T17:40:00.319Z,25.28
2023-02-25T17:42:33.843Z,25.61
2023-02-25T17:45:03.249Z,25.81
2023-02-25T17:47:33.696Z,26.35
2023-02-25T17:50:22.428Z,25.59
2023-02-25T17:52:51.665Z,26.40
2023-02-25T17:55:24.925Z,25.49
2023-02-25T17:57:54.801Z,26.10
2023-02-25T18:00:26.055Z,26.09
2023-02-25T18:03:15.884Z,26.68
2023-02-25T18:05:51.367Z,27.82
2023-02-25T18:08:21.190Z,27.06
2023-02-25T18:10:55.905Z,26.73
2023-02-25T18:13:33.794Z,27.29
2023-02-25T18:16:38.475Z,25.81
2023-02-25T18:19:17.377Z,27.12
2023-02-25T18:21:46.708Z,26.59
2023-02-25T18:24:24.347Z,27.15
2023-02-25T18:27:24.557Z,27.22
2023-02-25T18:29:52.624Z,26.51
2023-02-25T18:32:20.662Z,27.23
2023-02-25T18:34:48.623Z,27.77
2023-02-25T18:37:20.386Z,28.18
2023-02-25T18:39:49.181Z,27.51
2023-02-25T18:42:18.688Z,27.77
2023-02-25T18:44:47.782Z,27.35
2023-02-25T18:47:16.864Z,27.42
2023-02-25T18:49:45.800Z,27.46
2023-02-25T18:52:22.506Z,27.73
2023-02-25T18:54:50.438Z,27.68
2023-02-25T18:57:22.618Z,28.62
2023-02-25T18:59:50.854Z,28.10
2023-02-25T19:02:28.053Z,29.02
2023-02-25T19:04:56.278Z,28.10
2023-02-25T19:07:27.518Z,28.97
2023-02-25T19:09:56.254Z,28.72
2023-02-25T19:12:25.363Z,29.54
2023-02-25T19:14:59.706Z,29.75
2023-02-25T19:17:28.135Z,30.19
2023-02-25T19:19:56.370Z,30.82
2023-02-25T19:22:26.173Z,29.78
2023-02-25T19:24:54.128Z,30.21
2023-02-25T19:27:24.854Z,29.59
2023-02-25T19:29:54.149Z,30.76
2023-02-25T19:32:22.478Z,30.72
2023-02-25T19:34:50.694Z,29.76
2023-02-25T19:37:21.153Z,30.91
2023-02-25T19:39:50.348Z,31.48
2023-02-25T19:42:18.126Z,30.27
2023-02-25T19:44:46.106Z,29.82
2023-02-25T19:47:14.813Z,29.57
2023-02-25T19:49:42.575Z,30.52
2023-02-25T19:52:10.917Z,30.55
2023-02-25T19:54:38.750Z,30.74
2023-02-25T19:57:07.983Z,31.48
2023-02-25T19:59:35.833Z,30.54
2023-02-25T20:02:03.744Z,30.37
2023-02-25T20:04:32.215Z,29.94
2023-02-25T20:07:00.548Z,29.94
2023-02-25T20:09:28.311Z,30.25
2023-02-25T20:11:56.147Z,29.95
2023-02-25T20:14:27.987Z,29.85
2023-02-25T20:16:57.014Z,29.85
2023-02-25T20:19:27.867Z,30.58
2023-02-25T20:21:55.752Z,30.60
2023-02-25T20:24:23.595Z,29.91
2023-02-25T20:26:51.496Z,30.25
2023-02-25T20:29:19.468Z,30.30
2023-02-25T20:31:49.316Z,30.49
2023-02-25T20:34:20.719Z,30.01
2023-02-25T20:36:54.019Z,30.61
2023-02-25T20:39:40.387Z,30.65
2023-02-25T20:42:13.454Z,30.44
2023-02-25T20:44:41.879Z,31.04
2023-02-25T20:47:17.795Z,30.93
2023-02-25T20:49:45.951Z,30.60
2023-02-25T20:52:16.849Z,30.45
2023-02-25T20:54:44.752Z,30.20
2023-02-25T20:57:15.438Z,30.07
2023-02-25T20:59:43.634Z,30.91
2023-02-25T21:02:13.403Z,30.86
2023-02-25T21:04:41.443Z,31.00
2023-02-25T21:07:10.635Z,32.07
2023-02-25T21:09:38.676Z,33.26
2023-02-25T21:12:07.614Z,32.24
2023-02-25T21:14:35.991Z,32.58
2023-02-25T21:17:06.001Z,33.89
2023-02-25T21:19:35.201Z,34.14
2023-02-25T21:22:03.225Z,33.37
2023-02-25T21:24:33.573Z,34.02
2023-02-25T21:27:01.725Z,33.12
2023-02-25T21:29:29.951Z,33.83
2023-02-25T21:31:57.804Z,33.76
2023-02-25T21:34:26.093Z,33.24
2023-02-25T21:36:57.532Z,33.92
2023-02-25T21:39:26.402Z,34.21
2023-02-25T21:41:54.296Z,36.13
2023-02-25T21:44:22.300Z,36.16
2023-02-25T21:46:50.146Z,35.33
2023-02-25T21:49:18.048Z,34.95
2023-02-25T21:51:45.901Z,36.19
2023-02-25T21:54:15.201Z,36.16
2023-02-25T21:56:43.061Z,36.45
2023-02-25T21:59:10.979Z,35.87
2023-02-25T22:01:40.575Z,35.59
2023-02-25T22:04:09.700Z,37.12
2023-02-25T22:06:38.135Z,35.99
2023-02-25T22:09:06.935Z,35.93
2023-02-25T22:11:37.851Z,37.31
2023-02-25T22:14:08.179Z,37.44
2023-02-25T22:16:36.790Z,37.07
2023-02-25T22:19:05.053Z,37.07
2023-02-25T22:21:35.494Z,36.99
2023-02-25T22:24:05.240Z,36.60
2023-02-25T22:26:34.792Z,36.84
2023-02-25T22:29:06.925Z,36.36
2023-02-25T22:31:35.261Z,36.00
2023-02-25T22:34:04.036Z,35.63
2023-02-25T22:36:32.032Z,36.15
2023-02-25T22:38:59.842Z,37.27
2023-02-25T22:41:29.572Z,37.17
2023-02-25T22:43:58.999Z,38.14
2023-02-25T22:46:30.358Z,37.41
2023-02-25T22:48:58.979Z,36.50
2023-02-25T22:51:30.478Z,36.01
2023-02-25T22:53:58.531Z,35.86
2023-02-25T22:56:26.961Z,36.27
2023-02-25T22:58:55.533Z,35.79
2023-02-25T23:01:24.692Z,37.00
2023-02-25T23:03:56.361Z,36.63
2023-02-25T23:06:42.300Z,37.72
2023-02-25T23:09:11.537Z,36.99
2023-02-25T23:11:41.935Z,37.04
2023-02-25T23:14:09.825Z,37.06
2023-02-25T23:16:40.254Z,36.48
2023-02-25T23:19:11.167Z,36.55
2023-02-25T23:21:39.518Z,35.89
2023-02-25T23:24:08.801Z,35.54
2023-02-25T23:26:40.062Z,35.94
2023-02-25T23:29:09.868Z,36.77
2023-02-25T23:31:40.098Z,36.17
2023-02-25T23:34:11.914Z,37.39
2023-02-25T23:36:42.824Z,36.53
2023-02-25T23:39:12.439Z,36.16
2023-02-25T23:41:40.662Z,36.60
2023-02-25T23:44:09.511Z,35.47
2023-02-25T23:46:38.182Z,37.21
2023-02-25T23:49:07.791Z,37.56
2023-02-25T23:51:37.681Z,36.64
2023-02-25T23:54:06.835Z,36.75
2023-02-25T23:56:35.426Z,35.76
2023-02-25T23:59:04.289Z,36.51
